Orlando, Florida
Traffic Map
Current Weather Conditions
Orlando, Florida
Clear
Clear
27°
Feels Like: 30°
Wind Chill: 27° Ceiling: Unl
Heat Index: 30° Visibility: 10mi
Dew Point: 22° Wind: 0mph
Humidity: 74% Direction: ° ()
Pressure: 30.15in Gusts: 0mph
Raw Report DataKORL 160353Z 00000KT 10SM CLR 27/22 A3015 RMK AO2 SLP211 T02720222
Traffic Incident Summary
Active as of:
Severity:
Category:
InformationThere was an issue retrieving the traffic information for this location. Please try a different location or try again shortly.
Advertisements
Track Severe Weather on mobile